Fords Creek, Mississippi
Current Conditions -  °F | °C
As of 10:53 PM on Monday 22 Dec 2014 (Local Time) from KHBG Reporting Station
Broken Clouds Broken Clouds  
Wind Chill: 69°   Ceiling: 2600
Heat Index: 69°   Visibility: 9mi
Dew Point: 66°   Wind: 8mph
Humidity: 90%   Direction: 190°S
Pressure: 29.75"   Gusts: NA
Location:  30.8781°N, 89.5858°W
Report Text: KHBG 230453Z AUTO 19007KT 9SM SCT013 BKN026 BKN033 21/19 A2975 RMK AO2 SLP071 T02060189
Loading
Personal Weather Stations






























Interactive Weather Map New forecast layout! Learn more

10-Day Weather Forecast

Advertisements
Track Severe Weather on mobile